sensor_id;sensor_type;location;lat;lon;timestamp;P1;durP1;ratioP1;P2;durP2;ratioP2
3953;SDS011;1991;48.682;9.030;2023-05-29T00:01:34;9.77;;;5.30;;
3953;SDS011;1991;48.682;9.030;2023-05-29T00:04:01;8.75;;;4.72;;
3953;SDS011;1991;48.682;9.030;2023-05-29T00:06:26;8.50;;;5.28;;
3953;SDS011;1991;48.682;9.030;2023-05-29T00:08:52;7.75;;;4.63;;
3953;SDS011;1991;48.682;9.030;2023-05-29T00:11:17;9.07;;;5.30;;
3953;SDS011;1991;48.682;9.030;2023-05-29T00:13:43;6.72;;;4.45;;
3953;SDS011;1991;48.682;9.030;2023-05-29T00:16:09;6.43;;;4.65;;
3953;SDS011;1991;48.682;9.030;2023-05-29T00:18:35;9.60;;;5.18;;
3953;SDS011;1991;48.682;9.030;2023-05-29T00:21:01;9.02;;;5.05;;
3953;SDS011;1991;48.682;9.030;2023-05-29T00:23:27;8.23;;;4.78;;
3953;SDS011;1991;48.682;9.030;2023-05-29T00:25:52;10.32;;;5.10;;
3953;SDS011;1991;48.682;9.030;2023-05-29T00:28:18;8.60;;;5.22;;
3953;SDS011;1991;48.682;9.030;2023-05-29T00:30:43;9.10;;;5.03;;
3953;SDS011;1991;48.682;9.030;2023-05-29T00:33:09;8.38;;;5.25;;
3953;SDS011;1991;48.682;9.030;2023-05-29T00:35:35;8.38;;;4.85;;
3953;SDS011;1991;48.682;9.030;2023-05-29T00:38:00;9.93;;;5.20;;
3953;SDS011;1991;48.682;9.030;2023-05-29T00:40:26;9.95;;;5.40;;
3953;SDS011;1991;48.682;9.030;2023-05-29T00:42:52;7.18;;;5.38;;
3953;SDS011;1991;48.682;9.030;2023-05-29T00:45:17;7.00;;;4.50;;
3953;SDS011;1991;48.682;9.030;2023-05-29T00:47:43;6.15;;;5.07;;
3953;SDS011;1991;48.682;9.030;2023-05-29T00:50:11;8.32;;;5.22;;
3953;SDS011;1991;48.682;9.030;2023-05-29T00:52:39;7.22;;;4.43;;
3953;SDS011;1991;48.682;9.030;2023-05-29T00:55:06;8.38;;;5.13;;
3953;SDS011;1991;48.682;9.030;2023-05-29T00:57:33;10.00;;;4.90;;
3953;SDS011;1991;48.682;9.030;2023-05-29T01:00:02;8.98;;;5.40;;
3953;SDS011;1991;48.682;9.030;2023-05-29T01:02:31;8.82;;;5.25;;
3953;SDS011;1991;48.682;9.030;2023-05-29T01:04:57;9.70;;;5.25;;
3953;SDS011;1991;48.682;9.030;2023-05-29T01:07:23;10.10;;;5.28;;
3953;SDS011;1991;48.682;9.030;2023-05-29T01:09:48;10.10;;;5.20;;
3953;SDS011;1991;48.682;9.030;2023-05-29T01:12:21;8.40;;;5.50;;
3953;SDS011;1991;48.682;9.030;2023-05-29T01:15:04;7.35;;;4.80;;
3953;SDS011;1991;48.682;9.030;2023-05-29T01:25:27;8.43;;;4.93;;
3953;SDS011;1991;48.682;9.030;2023-05-29T01:28:01;7.55;;;5.57;;
3953;SDS011;1991;48.682;9.030;2023-05-29T01:30:31;8.75;;;5.45;;
3953;SDS011;1991;48.682;9.030;2023-05-29T01:32:58;11.10;;;5.25;;
3953;SDS011;1991;48.682;9.030;2023-05-29T01:35:24;7.80;;;5.05;;
3953;SDS011;1991;48.682;9.030;2023-05-29T01:37:50;8.60;;;5.18;;
3953;SDS011;1991;48.682;9.030;2023-05-29T01:40:15;10.13;;;5.90;;
3953;SDS011;1991;48.682;9.030;2023-05-29T01:42:41;8.38;;;5.30;;
3953;SDS011;1991;48.682;9.030;2023-05-29T01:45:08;9.88;;;5.68;;
3953;SDS011;1991;48.682;9.030;2023-05-29T01:47:34;11.43;;;6.07;;
3953;SDS011;1991;48.682;9.030;2023-05-29T01:50:00;8.88;;;5.78;;
3953;SDS011;1991;48.682;9.030;2023-05-29T01:52:29;9.55;;;5.68;;
3953;SDS011;1991;48.682;9.030;2023-05-29T01:54:55;7.35;;;5.15;;
3953;SDS011;1991;48.682;9.030;2023-05-29T01:57:21;8.65;;;5.47;;
3953;SDS011;1991;48.682;9.030;2023-05-29T01:59:46;9.82;;;5.13;;
3953;SDS011;1991;48.682;9.030;2023-05-29T02:02:12;9.05;;;5.18;;
3953;SDS011;1991;48.682;9.030;2023-05-29T02:04:38;6.95;;;5.13;;
3953;SDS011;1991;48.682;9.030;2023-05-29T02:07:04;8.38;;;5.07;;
3953;SDS011;1991;48.682;9.030;2023-05-29T02:09:31;9.18;;;4.85;;
3953;SDS011;1991;48.682;9.030;2023-05-29T02:11:56;6.85;;;4.95;;
3953;SDS011;1991;48.682;9.030;2023-05-29T02:14:22;9.60;;;5.32;;
3953;SDS011;1991;48.682;9.030;2023-05-29T02:16:49;6.70;;;5.07;;
3953;SDS011;1991;48.682;9.030;2023-05-29T02:19:16;9.57;;;5.00;;
3953;SDS011;1991;48.682;9.030;2023-05-29T02:21:43;6.47;;;5.40;;
3953;SDS011;1991;48.682;9.030;2023-05-29T02:24:09;7.40;;;5.07;;
3953;SDS011;1991;48.682;9.030;2023-05-29T02:26:35;8.48;;;5.35;;
3953;SDS011;1991;48.682;9.030;2023-05-29T02:29:02;7.68;;;4.97;;
3953;SDS011;1991;48.682;9.030;2023-05-29T02:31:27;8.35;;;5.50;;
3953;SDS011;1991;48.682;9.030;2023-05-29T02:33:53;8.88;;;5.25;;
3953;SDS011;1991;48.682;9.030;2023-05-29T02:36:18;7.47;;;5.30;;
3953;SDS011;1991;48.682;9.030;2023-05-29T02:38:44;9.23;;;5.32;;
3953;SDS011;1991;48.682;9.030;2023-05-29T02:41:10;8.50;;;5.18;;
3953;SDS011;1991;48.682;9.030;2023-05-29T02:43:35;8.80;;;4.78;;
3953;SDS011;1991;48.682;9.030;2023-05-29T02:46:01;8.30;;;4.70;;
3953;SDS011;1991;48.682;9.030;2023-05-29T02:48:26;9.57;;;5.70;;
3953;SDS011;1991;48.682;9.030;2023-05-29T02:50:52;6.40;;;4.65;;
3953;SDS011;1991;48.682;9.030;2023-05-29T02:53:17;10.38;;;5.30;;
3953;SDS011;1991;48.682;9.030;2023-05-29T02:55:43;6.72;;;4.60;;
3953;SDS011;1991;48.682;9.030;2023-05-29T02:58:09;8.45;;;4.80;;
3953;SDS011;1991;48.682;9.030;2023-05-29T03:00:36;9.43;;;5.05;;
3953;SDS011;1991;48.682;9.030;2023-05-29T03:03:02;8.85;;;5.65;;
3953;SDS011;1991;48.682;9.030;2023-05-29T03:05:28;8.80;;;4.85;;
3953;SDS011;1991;48.682;9.030;2023-05-29T03:07:53;9.70;;;5.38;;
3953;SDS011;1991;48.682;9.030;2023-05-29T03:10:19;8.98;;;5.32;;
3953;SDS011;1991;48.682;9.030;2023-05-29T03:12:46;8.32;;;4.82;;
3953;SDS011;1991;48.682;9.030;2023-05-29T03:15:12;8.63;;;5.10;;
3953;SDS011;1991;48.682;9.030;2023-05-29T03:17:37;10.48;;;5.35;;
3953;SDS011;1991;48.682;9.030;2023-05-29T03:20:03;6.97;;;4.85;;
3953;SDS011;1991;48.682;9.030;2023-05-29T03:22:35;9.15;;;5.28;;
3953;SDS011;1991;48.682;9.030;2023-05-29T03:25:01;8.70;;;5.20;;
3953;SDS011;1991;48.682;9.030;2023-05-29T03:27:29;8.65;;;5.38;;
3953;SDS011;1991;48.682;9.030;2023-05-29T03:29:55;9.02;;;5.32;;
3953;SDS011;1991;48.682;9.030;2023-05-29T03:32:20;8.40;;;4.95;;
3953;SDS011;1991;48.682;9.030;2023-05-29T03:34:46;7.70;;;5.38;;
3953;SDS011;1991;48.682;9.030;2023-05-29T03:37:12;7.95;;;4.80;;
3953;SDS011;1991;48.682;9.030;2023-05-29T03:39:38;10.02;;;5.40;;
3953;SDS011;1991;48.682;9.030;2023-05-29T03:42:04;9.38;;;5.30;;
3953;SDS011;1991;48.682;9.030;2023-05-29T03:44:29;7.88;;;5.60;;
3953;SDS011;1991;48.682;9.030;2023-05-29T03:46:55;8.73;;;5.40;;
3953;SDS011;1991;48.682;9.030;2023-05-29T03:49:21;7.80;;;5.57;;
3953;SDS011;1991;48.682;9.030;2023-05-29T03:51:46;6.45;;;4.70;;
3953;SDS011;1991;48.682;9.030;2023-05-29T03:54:12;8.05;;;5.22;;
3953;SDS011;1991;48.682;9.030;2023-05-29T03:56:37;6.88;;;4.68;;
3953;SDS011;1991;48.682;9.030;2023-05-29T03:59:03;8.23;;;5.05;;
3953;SDS011;1991;48.682;9.030;2023-05-29T04:01:28;8.75;;;5.50;;
3953;SDS011;1991;48.682;9.030;2023-05-29T04:03:54;7.80;;;4.80;;
3953;SDS011;1991;48.682;9.030;2023-05-29T04:06:20;7.70;;;5.32;;
3953;SDS011;1991;48.682;9.030;2023-05-29T04:08:46;10.00;;;5.50;;
3953;SDS011;1991;48.682;9.030;2023-05-29T04:11:12;9.32;;;5.85;;
3953;SDS011;1991;48.682;9.030;2023-05-29T04:13:39;9.82;;;5.30;;
3953;SDS011;1991;48.682;9.030;2023-05-29T04:16:05;11.43;;;5.38;;
3953;SDS011;1991;48.682;9.030;2023-05-29T04:18:31;9.25;;;5.95;;
3953;SDS011;1991;48.682;9.030;2023-05-29T04:20:56;7.20;;;4.60;;
3953;SDS011;1991;48.682;9.030;2023-05-29T04:23:22;7.40;;;5.32;;
3953;SDS011;1991;48.682;9.030;2023-05-29T04:25:48;7.78;;;5.70;;
3953;SDS011;1991;48.682;9.030;2023-05-29T04:28:15;9.63;;;5.32;;
3953;SDS011;1991;48.682;9.030;2023-05-29T04:30:42;8.60;;;5.50;;
3953;SDS011;1991;48.682;9.030;2023-05-29T04:33:07;8.32;;;5.18;;
3953;SDS011;1991;48.682;9.030;2023-05-29T04:35:34;5.85;;;4.50;;
3953;SDS011;1991;48.682;9.030;2023-05-29T04:38:00;10.55;;;4.60;;
3953;SDS011;1991;48.682;9.030;2023-05-29T04:40:26;8.25;;;5.43;;
3953;SDS011;1991;48.682;9.030;2023-05-29T04:42:51;8.45;;;5.43;;
3953;SDS011;1991;48.682;9.030;2023-05-29T04:45:19;8.40;;;5.50;;
3953;SDS011;1991;48.682;9.030;2023-05-29T04:47:45;9.95;;;5.20;;
3953;SDS011;1991;48.682;9.030;2023-05-29T04:50:11;10.10;;;5.40;;
3953;SDS011;1991;48.682;9.030;2023-05-29T04:52:37;7.82;;;5.13;;
3953;SDS011;1991;48.682;9.030;2023-05-29T04:55:03;7.85;;;5.30;;
3953;SDS011;1991;48.682;9.030;2023-05-29T04:57:29;9.43;;;5.78;;
3953;SDS011;1991;48.682;9.030;2023-05-29T04:59:55;9.30;;;5.55;;
3953;SDS011;1991;48.682;9.030;2023-05-29T05:02:21;8.50;;;5.80;;
3953;SDS011;1991;48.682;9.030;2023-05-29T05:04:46;12.52;;;6.18;;
3953;SDS011;1991;48.682;9.030;2023-05-29T05:07:12;9.48;;;5.80;;
3953;SDS011;1991;48.682;9.030;2023-05-29T05:09:40;7.50;;;5.57;;
3953;SDS011;1991;48.682;9.030;2023-05-29T05:12:06;9.82;;;5.57;;
3953;SDS011;1991;48.682;9.030;2023-05-29T05:14:32;9.18;;;5.85;;
3953;SDS011;1991;48.682;9.030;2023-05-29T05:16:58;9.07;;;5.57;;
3953;SDS011;1991;48.682;9.030;2023-05-29T05:19:23;7.32;;;5.05;;
3953;SDS011;1991;48.682;9.030;2023-05-29T05:21:49;8.75;;;6.28;;
3953;SDS011;1991;48.682;9.030;2023-05-29T05:24:14;9.07;;;6.32;;
3953;SDS011;1991;48.682;9.030;2023-05-29T05:26:40;11.07;;;7.10;;
3953;SDS011;1991;48.682;9.030;2023-05-29T05:29:05;12.70;;;6.65;;
3953;SDS011;1991;48.682;9.030;2023-05-29T05:31:31;9.70;;;6.30;;
3953;SDS011;1991;48.682;9.030;2023-05-29T05:33:57;9.20;;;5.57;;
3953;SDS011;1991;48.682;9.030;2023-05-29T05:36:22;8.93;;;6.15;;
3953;SDS011;1991;48.682;9.030;2023-05-29T05:38:48;8.90;;;6.00;;
3953;SDS011;1991;48.682;9.030;2023-05-29T05:41:14;10.07;;;6.07;;
3953;SDS011;1991;48.682;9.030;2023-05-29T05:43:39;9.93;;;5.75;;
3953;SDS011;1991;48.682;9.030;2023-05-29T05:46:05;11.18;;;6.03;;
3953;SDS011;1991;48.682;9.030;2023-05-29T05:48:30;13.90;;;5.22;;
3953;SDS011;1991;48.682;9.030;2023-05-29T05:50:56;8.93;;;6.07;;
3953;SDS011;1991;48.682;9.030;2023-05-29T05:53:22;8.68;;;5.68;;
3953;SDS011;1991;48.682;9.030;2023-05-29T05:55:47;8.25;;;5.32;;
3953;SDS011;1991;48.682;9.030;2023-05-29T05:58:13;11.57;;;5.65;;
3953;SDS011;1991;48.682;9.030;2023-05-29T06:00:41;15.68;;;6.07;;
3953;SDS011;1991;48.682;9.030;2023-05-29T06:03:07;8.77;;;5.30;;
3953;SDS011;1991;48.682;9.030;2023-05-29T06:05:33;10.40;;;5.68;;
3953;SDS011;1991;48.682;9.030;2023-05-29T06:08:01;8.32;;;5.60;;
3953;SDS011;1991;48.682;9.030;2023-05-29T06:10:27;7.63;;;5.90;;
3953;SDS011;1991;48.682;9.030;2023-05-29T06:12:52;10.52;;;5.55;;
3953;SDS011;1991;48.682;9.030;2023-05-29T06:15:18;9.55;;;5.40;;
3953;SDS011;1991;48.682;9.030;2023-05-29T06:17:44;7.97;;;5.05;;
3953;SDS011;1991;48.682;9.030;2023-05-29T06:20:09;11.13;;;5.57;;
3953;SDS011;1991;48.682;9.030;2023-05-29T06:22:36;9.45;;;5.70;;
3953;SDS011;1991;48.682;9.030;2023-05-29T06:25:02;7.85;;;4.82;;
3953;SDS011;1991;48.682;9.030;2023-05-29T06:27:28;10.43;;;5.25;;
3953;SDS011;1991;48.682;9.030;2023-05-29T06:29:53;7.03;;;4.97;;
3953;SDS011;1991;48.682;9.030;2023-05-29T06:32:19;6.60;;;4.95;;
3953;SDS011;1991;48.682;9.030;2023-05-29T06:34:45;7.72;;;5.43;;
3953;SDS011;1991;48.682;9.030;2023-05-29T06:37:10;8.32;;;5.05;;
3953;SDS011;1991;48.682;9.030;2023-05-29T06:39:36;9.10;;;5.38;;
3953;SDS011;1991;48.682;9.030;2023-05-29T06:42:02;8.55;;;4.50;;
3953;SDS011;1991;48.682;9.030;2023-05-29T06:44:27;6.65;;;5.03;;
3953;SDS011;1991;48.682;9.030;2023-05-29T06:46:53;8.50;;;5.20;;
3953;SDS011;1991;48.682;9.030;2023-05-29T06:49:18;7.57;;;4.70;;
3953;SDS011;1991;48.682;9.030;2023-05-29T06:51:44;6.50;;;4.03;;
3953;SDS011;1991;48.682;9.030;2023-05-29T06:54:10;7.05;;;4.75;;
3953;SDS011;1991;48.682;9.030;2023-05-29T06:56:35;6.53;;;3.95;;
3953;SDS011;1991;48.682;9.030;2023-05-29T06:59:01;6.07;;;4.65;;
3953;SDS011;1991;48.682;9.030;2023-05-29T07:01:27;6.97;;;4.45;;
3953;SDS011;1991;48.682;9.030;2023-05-29T07:03:52;7.25;;;4.07;;
3953;SDS011;1991;48.682;9.030;2023-05-29T07:06:18;6.70;;;4.05;;
3953;SDS011;1991;48.682;9.030;2023-05-29T07:08:44;5.70;;;4.15;;
3953;SDS011;1991;48.682;9.030;2023-05-29T07:11:10;8.65;;;4.15;;
3953;SDS011;1991;48.682;9.030;2023-05-29T07:13:35;7.95;;;5.57;;
3953;SDS011;1991;48.682;9.030;2023-05-29T07:16:01;7.90;;;5.25;;
3953;SDS011;1991;48.682;9.030;2023-05-29T07:18:27;7.18;;;4.65;;
3953;SDS011;1991;48.682;9.030;2023-05-29T07:20:53;7.22;;;4.50;;
3953;SDS011;1991;48.682;9.030;2023-05-29T07:23:20;7.90;;;4.25;;
3953;SDS011;1991;48.682;9.030;2023-05-29T07:25:46;7.93;;;4.60;;
3953;SDS011;1991;48.682;9.030;2023-05-29T07:28:12;5.65;;;4.28;;
3953;SDS011;1991;48.682;9.030;2023-05-29T07:30:37;9.82;;;5.10;;
3953;SDS011;1991;48.682;9.030;2023-05-29T07:33:03;5.93;;;4.05;;
3953;SDS011;1991;48.682;9.030;2023-05-29T07:35:28;5.88;;;4.53;;
3953;SDS011;1991;48.682;9.030;2023-05-29T07:37:54;8.40;;;4.22;;
3953;SDS011;1991;48.682;9.030;2023-05-29T07:40:19;8.15;;;4.53;;
3953;SDS011;1991;48.682;9.030;2023-05-29T07:42:45;5.80;;;4.68;;
3953;SDS011;1991;48.682;9.030;2023-05-29T07:45:11;8.50;;;4.35;;
3953;SDS011;1991;48.682;9.030;2023-05-29T07:47:36;6.70;;;4.18;;
3953;SDS011;1991;48.682;9.030;2023-05-29T07:50:02;6.95;;;4.90;;
3953;SDS011;1991;48.682;9.030;2023-05-29T07:52:28;9.77;;;4.97;;
3953;SDS011;1991;48.682;9.030;2023-05-29T07:54:53;7.05;;;4.32;;
3953;SDS011;1991;48.682;9.030;2023-05-29T07:57:19;6.97;;;4.65;;
3953;SDS011;1991;48.682;9.030;2023-05-29T07:59:45;8.20;;;4.82;;
3953;SDS011;1991;48.682;9.030;2023-05-29T08:02:14;7.70;;;4.78;;
3953;SDS011;1991;48.682;9.030;2023-05-29T08:04:40;7.32;;;4.53;;
3953;SDS011;1991;48.682;9.030;2023-05-29T08:07:06;6.85;;;4.45;;
3953;SDS011;1991;48.682;9.030;2023-05-29T08:09:31;6.47;;;5.00;;
3953;SDS011;1991;48.682;9.030;2023-05-29T08:11:57;7.22;;;4.97;;
3953;SDS011;1991;48.682;9.030;2023-05-29T08:14:25;8.65;;;4.93;;
3953;SDS011;1991;48.682;9.030;2023-05-29T08:16:51;7.07;;;4.97;;
3953;SDS011;1991;48.682;9.030;2023-05-29T08:19:17;7.10;;;4.70;;
3953;SDS011;1991;48.682;9.030;2023-05-29T08:21:42;6.28;;;4.57;;
3953;SDS011;1991;48.682;9.030;2023-05-29T08:24:08;8.90;;;5.32;;
3953;SDS011;1991;48.682;9.030;2023-05-29T08:26:34;6.22;;;5.03;;
3953;SDS011;1991;48.682;9.030;2023-05-29T08:29:00;6.78;;;5.07;;
3953;SDS011;1991;48.682;9.030;2023-05-29T08:31:26;7.82;;;4.75;;
3953;SDS011;1991;48.682;9.030;2023-05-29T08:33:52;8.73;;;4.70;;
3953;SDS011;1991;48.682;9.030;2023-05-29T08:36:18;11.68;;;4.63;;
3953;SDS011;1991;48.682;9.030;2023-05-29T08:38:46;7.75;;;4.85;;
3953;SDS011;1991;48.682;9.030;2023-05-29T08:43:59;7.43;;;4.43;;
3953;SDS011;1991;48.682;9.030;2023-05-29T08:46:27;7.50;;;4.75;;
3953;SDS011;1991;48.682;9.030;2023-05-29T08:48:53;6.43;;;4.72;;
3953;SDS011;1991;48.682;9.030;2023-05-29T08:51:22;5.70;;;4.60;;
3953;SDS011;1991;48.682;9.030;2023-05-29T08:53:54;8.88;;;4.35;;
3953;SDS011;1991;48.682;9.030;2023-05-29T08:56:21;7.22;;;4.40;;
3953;SDS011;1991;48.682;9.030;2023-05-29T08:58:47;7.05;;;4.30;;
3953;SDS011;1991;48.682;9.030;2023-05-29T09:01:14;5.82;;;4.30;;
3953;SDS011;1991;48.682;9.030;2023-05-29T09:03:40;7.32;;;5.20;;
3953;SDS011;1991;48.682;9.030;2023-05-29T09:06:06;8.95;;;5.35;;
3953;SDS011;1991;48.682;9.030;2023-05-29T09:08:33;7.82;;;4.57;;
3953;SDS011;1991;48.682;9.030;2023-05-29T09:10:59;6.45;;;4.80;;
3953;SDS011;1991;48.682;9.030;2023-05-29T09:13:25;7.55;;;5.18;;
3953;SDS011;1991;48.682;9.030;2023-05-29T09:15:57;6.47;;;4.68;;
3953;SDS011;1991;48.682;9.030;2023-05-29T09:18:23;8.98;;;4.63;;
3953;SDS011;1991;48.682;9.030;2023-05-29T09:20:53;10.82;;;4.82;;
3953;SDS011;1991;48.682;9.030;2023-05-29T09:23:19;5.78;;;4.18;;
3953;SDS011;1991;48.682;9.030;2023-05-29T09:25:44;6.47;;;4.78;;
3953;SDS011;1991;48.682;9.030;2023-05-29T09:28:17;9.10;;;4.43;;
3953;SDS011;1991;48.682;9.030;2023-05-29T09:30:44;6.22;;;4.43;;
3953;SDS011;1991;48.682;9.030;2023-05-29T09:33:14;12.25;;;5.03;;
3953;SDS011;1991;48.682;9.030;2023-05-29T09:35:48;6.50;;;4.57;;
3953;SDS011;1991;48.682;9.030;2023-05-29T09:38:16;5.70;;;4.88;;
3953;SDS011;1991;48.682;9.030;2023-05-29T09:40:43;8.05;;;4.93;;
3953;SDS011;1991;48.682;9.030;2023-05-29T09:43:12;6.47;;;4.90;;
3953;SDS011;1991;48.682;9.030;2023-05-29T09:45:46;6.63;;;4.70;;
3953;SDS011;1991;48.682;9.030;2023-05-29T09:48:16;7.20;;;4.70;;
3953;SDS011;1991;48.682;9.030;2023-05-29T09:50:43;7.15;;;5.22;;
3953;SDS011;1991;48.682;9.030;2023-05-29T09:53:19;7.47;;;5.10;;
3953;SDS011;1991;48.682;9.030;2023-05-29T09:55:46;10.38;;;5.07;;
3953;SDS011;1991;48.682;9.030;2023-05-29T09:58:13;7.20;;;4.45;;
3953;SDS011;1991;48.682;9.030;2023-05-29T10:00:40;8.40;;;4.80;;
3953;SDS011;1991;48.682;9.030;2023-05-29T10:03:07;8.63;;;4.60;;
3953;SDS011;1991;48.682;9.030;2023-05-29T10:05:33;7.47;;;4.72;;
3953;SDS011;1991;48.682;9.030;2023-05-29T10:08:00;6.68;;;4.65;;
3953;SDS011;1991;48.682;9.030;2023-05-29T10:10:27;6.40;;;4.43;;
3953;SDS011;1991;48.682;9.030;2023-05-29T10:12:53;6.32;;;4.78;;
3953;SDS011;1991;48.682;9.030;2023-05-29T10:15:20;4.80;;;4.10;;
3953;SDS011;1991;48.682;9.030;2023-05-29T10:17:59;7.45;;;4.07;;
3953;SDS011;1991;48.682;9.030;2023-05-29T10:20:29;7.30;;;4.50;;
3953;SDS011;1991;48.682;9.030;2023-05-29T10:22:59;7.80;;;4.72;;
3953;SDS011;1991;48.682;9.030;2023-05-29T10:25:29;7.13;;;4.20;;
3953;SDS011;1991;48.682;9.030;2023-05-29T10:27:57;11.13;;;4.57;;
3953;SDS011;1991;48.682;9.030;2023-05-29T10:35:22;6.50;;;4.47;;
3953;SDS011;1991;48.682;9.030;2023-05-29T10:38:10;4.65;;;4.10;;
3953;SDS011;1991;48.682;9.030;2023-05-29T10:40:42;7.70;;;4.43;;
3953;SDS011;1991;48.682;9.030;2023-05-29T10:43:08;5.40;;;4.28;;
3953;SDS011;1991;48.682;9.030;2023-05-29T10:50:36;6.05;;;4.10;;
3953;SDS011;1991;48.682;9.030;2023-05-29T10:53:03;7.97;;;4.18;;
3953;SDS011;1991;48.682;9.030;2023-05-29T10:55:35;7.07;;;3.97;;
3953;SDS011;1991;48.682;9.030;2023-05-29T10:58:08;6.03;;;4.32;;
3953;SDS011;1991;48.682;9.030;2023-05-29T11:00:40;7.90;;;4.00;;
3953;SDS011;1991;48.682;9.030;2023-05-29T11:03:07;7.50;;;4.28;;
3953;SDS011;1991;48.682;9.030;2023-05-29T11:05:34;8.10;;;4.05;;
3953;SDS011;1991;48.682;9.030;2023-05-29T11:08:00;5.60;;;4.28;;
3953;SDS011;1991;48.682;9.030;2023-05-29T11:10:41;6.40;;;4.22;;
3953;SDS011;1991;48.682;9.030;2023-05-29T11:13:29;5.93;;;4.35;;
3953;SDS011;1991;48.682;9.030;2023-05-29T11:16:10;8.15;;;4.47;;
3953;SDS011;1991;48.682;9.030;2023-05-29T11:18:45;9.35;;;4.13;;
3953;SDS011;1991;48.682;9.030;2023-05-29T11:24:24;6.40;;;3.97;;
3953;SDS011;1991;48.682;9.030;2023-05-29T11:26:52;6.10;;;3.95;;
3953;SDS011;1991;48.682;9.030;2023-05-29T11:29:27;5.50;;;3.72;;
3953;SDS011;1991;48.682;9.030;2023-05-29T11:32:03;6.80;;;3.97;;
3953;SDS011;1991;48.682;9.030;2023-05-29T11:34:31;6.18;;;4.15;;
3953;SDS011;1991;48.682;9.030;2023-05-29T11:37:00;6.30;;;4.28;;
3953;SDS011;1991;48.682;9.030;2023-05-29T11:39:28;4.93;;;3.75;;
3953;SDS011;1991;48.682;9.030;2023-05-29T11:41:54;8.30;;;4.07;;
3953;SDS011;1991;48.682;9.030;2023-05-29T11:44:20;7.35;;;3.95;;
3953;SDS011;1991;48.682;9.030;2023-05-29T11:46:58;9.23;;;3.95;;
3953;SDS011;1991;48.682;9.030;2023-05-29T11:49:27;5.75;;;3.67;;
3953;SDS011;1991;48.682;9.030;2023-05-29T11:52:07;5.40;;;3.38;;
3953;SDS011;1991;48.682;9.030;2023-05-29T11:54:34;5.65;;;3.80;;
3953;SDS011;1991;48.682;9.030;2023-05-29T11:57:00;38.53;;;5.35;;
3953;SDS011;1991;48.682;9.030;2023-05-29T11:59:30;7.35;;;3.60;;
3953;SDS011;1991;48.682;9.030;2023-05-29T12:01:56;4.75;;;3.50;;
3953;SDS011;1991;48.682;9.030;2023-05-29T12:04:21;7.30;;;3.75;;
3953;SDS011;1991;48.682;9.030;2023-05-29T12:06:47;6.25;;;4.18;;
3953;SDS011;1991;48.682;9.030;2023-05-29T12:09:26;5.70;;;3.83;;
3953;SDS011;1991;48.682;9.030;2023-05-29T12:11:53;6.00;;;4.15;;
3953;SDS011;1991;48.682;9.030;2023-05-29T12:14:28;7.13;;;3.42;;
3953;SDS011;1991;48.682;9.030;2023-05-29T12:16:53;6.10;;;3.70;;
3953;SDS011;1991;48.682;9.030;2023-05-29T12:19:19;5.80;;;3.70;;
3953;SDS011;1991;48.682;9.030;2023-05-29T12:21:45;4.05;;;3.03;;
3953;SDS011;1991;48.682;9.030;2023-05-29T12:24:11;4.78;;;3.65;;
3953;SDS011;1991;48.682;9.030;2023-05-29T12:26:36;6.07;;;3.40;;
3953;SDS011;1991;48.682;9.030;2023-05-29T12:29:03;4.78;;;3.50;;
3953;SDS011;1991;48.682;9.030;2023-05-29T12:31:32;4.72;;;3.55;;
3953;SDS011;1991;48.682;9.030;2023-05-29T12:34:02;7.07;;;3.83;;
3953;SDS011;1991;48.682;9.030;2023-05-29T12:36:39;4.18;;;3.22;;
3953;SDS011;1991;48.682;9.030;2023-05-29T12:39:06;7.25;;;3.70;;
3953;SDS011;1991;48.682;9.030;2023-05-29T12:41:36;6.97;;;2.92;;
3953;SDS011;1991;48.682;9.030;2023-05-29T12:44:04;5.55;;;3.50;;
3953;SDS011;1991;48.682;9.030;2023-05-29T12:46:35;6.68;;;3.97;;
3953;SDS011;1991;48.682;9.030;2023-05-29T12:49:17;4.32;;;3.58;;
3953;SDS011;1991;48.682;9.030;2023-05-29T12:51:46;7.50;;;3.53;;
3953;SDS011;1991;48.682;9.030;2023-05-29T12:54:13;8.25;;;4.10;;
3953;SDS011;1991;48.682;9.030;2023-05-29T12:56:40;5.43;;;3.53;;
3953;SDS011;1991;48.682;9.030;2023-05-29T12:59:09;6.50;;;3.70;;
3953;SDS011;1991;48.682;9.030;2023-05-29T13:01:35;6.22;;;3.40;;
3953;SDS011;1991;48.682;9.030;2023-05-29T13:04:03;6.72;;;3.20;;
3953;SDS011;1991;48.682;9.030;2023-05-29T13:06:31;8.20;;;3.10;;
3953;SDS011;1991;48.682;9.030;2023-05-29T13:09:02;6.25;;;3.33;;
3953;SDS011;1991;48.682;9.030;2023-05-29T13:11:27;4.75;;;3.35;;
3953;SDS011;1991;48.682;9.030;2023-05-29T13:13:53;4.25;;;2.88;;
3953;SDS011;1991;48.682;9.030;2023-05-29T13:16:19;5.15;;;3.20;;
3953;SDS011;1991;48.682;9.030;2023-05-29T13:18:44;3.70;;;3.22;;
3953;SDS011;1991;48.682;9.030;2023-05-29T13:21:10;5.05;;;3.60;;
3953;SDS011;1991;48.682;9.030;2023-05-29T13:23:36;4.25;;;3.25;;
3953;SDS011;1991;48.682;9.030;2023-05-29T13:26:03;6.00;;;3.10;;
3953;SDS011;1991;48.682;9.030;2023-05-29T13:28:28;5.38;;;3.38;;
3953;SDS011;1991;48.682;9.030;2023-05-29T13:30:54;5.00;;;3.22;;
3953;SDS011;1991;48.682;9.030;2023-05-29T13:33:20;4.78;;;2.65;;
3953;SDS011;1991;48.682;9.030;2023-05-29T13:35:45;6.13;;;3.10;;
3953;SDS011;1991;48.682;9.030;2023-05-29T13:38:11;5.82;;;3.10;;
3953;SDS011;1991;48.682;9.030;2023-05-29T13:40:37;4.22;;;3.20;;
3953;SDS011;1991;48.682;9.030;2023-05-29T13:43:02;6.82;;;4.00;;
3953;SDS011;1991;48.682;9.030;2023-05-29T13:45:28;3.80;;;3.50;;
3953;SDS011;1991;48.682;9.030;2023-05-29T13:47:54;3.92;;;3.25;;
3953;SDS011;1991;48.682;9.030;2023-05-29T13:50:20;4.10;;;3.40;;
3953;SDS011;1991;48.682;9.030;2023-05-29T13:52:48;5.57;;;3.25;;
3953;SDS011;1991;48.682;9.030;2023-05-29T13:55:14;7.72;;;3.67;;
3953;SDS011;1991;48.682;9.030;2023-05-29T13:57:40;5.63;;;3.63;;
3953;SDS011;1991;48.682;9.030;2023-05-29T14:00:06;4.57;;;3.30;;
3953;SDS011;1991;48.682;9.030;2023-05-29T14:02:32;4.20;;;3.40;;
3953;SDS011;1991;48.682;9.030;2023-05-29T14:04:58;5.13;;;3.25;;
3953;SDS011;1991;48.682;9.030;2023-05-29T14:07:23;5.22;;;3.20;;
3953;SDS011;1991;48.682;9.030;2023-05-29T14:09:50;4.13;;;3.22;;
3953;SDS011;1991;48.682;9.030;2023-05-29T14:12:15;6.72;;;3.50;;
3953;SDS011;1991;48.682;9.030;2023-05-29T14:14:41;7.78;;;3.72;;
3953;SDS011;1991;48.682;9.030;2023-05-29T14:17:07;4.05;;;3.20;;
3953;SDS011;1991;48.682;9.030;2023-05-29T14:19:34;6.88;;;3.83;;
3953;SDS011;1991;48.682;9.030;2023-05-29T14:21:59;4.82;;;3.53;;
3953;SDS011;1991;48.682;9.030;2023-05-29T14:24:25;3.38;;;3.05;;
3953;SDS011;1991;48.682;9.030;2023-05-29T14:26:51;5.55;;;3.47;;
3953;SDS011;1991;48.682;9.030;2023-05-29T14:29:17;5.07;;;3.40;;
3953;SDS011;1991;48.682;9.030;2023-05-29T14:31:43;4.75;;;3.08;;
3953;SDS011;1991;48.682;9.030;2023-05-29T14:34:09;4.53;;;3.50;;
3953;SDS011;1991;48.682;9.030;2023-05-29T14:36:35;4.20;;;3.50;;
3953;SDS011;1991;48.682;9.030;2023-05-29T14:39:01;4.63;;;3.60;;
3953;SDS011;1991;48.682;9.030;2023-05-29T14:41:30;3.70;;;3.30;;
3953;SDS011;1991;48.682;9.030;2023-05-29T14:43:56;7.45;;;4.00;;
3953;SDS011;1991;48.682;9.030;2023-05-29T14:46:23;5.90;;;3.38;;
3953;SDS011;1991;48.682;9.030;2023-05-29T14:48:50;10.57;;;3.92;;
3953;SDS011;1991;48.682;9.030;2023-05-29T14:51:16;7.28;;;3.70;;
3953;SDS011;1991;48.682;9.030;2023-05-29T14:53:43;6.32;;;3.70;;
3953;SDS011;1991;48.682;9.030;2023-05-29T14:56:08;4.93;;;3.45;;
3953;SDS011;1991;48.682;9.030;2023-05-29T14:58:34;7.20;;;3.65;;
3953;SDS011;1991;48.682;9.030;2023-05-29T15:00:59;4.78;;;3.72;;
3953;SDS011;1991;48.682;9.030;2023-05-29T15:03:25;3.75;;;3.15;;
3953;SDS011;1991;48.682;9.030;2023-05-29T15:05:52;4.80;;;3.33;;
3953;SDS011;1991;48.682;9.030;2023-05-29T15:08:18;4.47;;;3.70;;
3953;SDS011;1991;48.682;9.030;2023-05-29T15:10:44;7.10;;;3.80;;
3953;SDS011;1991;48.682;9.030;2023-05-29T15:13:09;7.72;;;3.63;;
3953;SDS011;1991;48.682;9.030;2023-05-29T15:15:35;4.75;;;3.60;;
3953;SDS011;1991;48.682;9.030;2023-05-29T15:18:01;4.68;;;3.83;;
3953;SDS011;1991;48.682;9.030;2023-05-29T15:20:26;8.27;;;4.22;;
3953;SDS011;1991;48.682;9.030;2023-05-29T15:22:52;7.75;;;3.30;;
3953;SDS011;1991;48.682;9.030;2023-05-29T15:25:19;4.72;;;3.17;;
3953;SDS011;1991;48.682;9.030;2023-05-29T15:27:45;3.80;;;3.28;;
3953;SDS011;1991;48.682;9.030;2023-05-29T15:30:11;4.28;;;3.65;;
3953;SDS011;1991;48.682;9.030;2023-05-29T15:32:39;4.70;;;3.15;;
3953;SDS011;1991;48.682;9.030;2023-05-29T15:35:06;7.80;;;3.90;;
3953;SDS011;1991;48.682;9.030;2023-05-29T15:37:33;4.90;;;3.83;;